createdAt,value
2023-05-21T00:04:33.775Z,101467.09
2023-05-21T00:09:38.205Z,101471.94
2023-05-21T00:14:40.892Z,101467.53
2023-05-21T00:19:50.085Z,101473.00
2023-05-21T00:24:53.110Z,101411.75
2023-05-21T00:29:55.895Z,101264.78
2023-05-21T00:35:00.259Z,101218.25
2023-05-21T00:40:06.527Z,101414.56
2023-05-21T00:45:10.107Z,101444.25
2023-05-21T00:50:21.741Z,101444.16
2023-05-21T00:55:25.377Z,101395.84
2023-05-21T01:00:28.720Z,101442.88
2023-05-21T01:05:33.106Z,101039.78
2023-05-21T01:10:35.958Z,101445.34
2023-05-21T01:15:39.152Z,101225.19
2023-05-21T01:20:48.275Z,101404.69
2023-05-21T01:25:54.803Z,101285.34
2023-05-21T01:31:03.639Z,101345.19
2023-05-21T01:36:25.120Z,101208.47
2023-05-21T01:41:33.922Z,101429.00
2023-05-21T01:46:37.785Z,101370.09
2023-05-21T01:51:41.075Z,101210.63
2023-05-21T01:56:47.795Z,101395.25
2023-05-21T02:01:50.599Z,101429.94
2023-05-21T02:06:54.750Z,101422.28
2023-05-21T02:11:59.129Z,101415.22
2023-05-21T02:17:02.289Z,101405.69
2023-05-21T02:22:05.154Z,101359.38
2023-05-21T02:27:10.502Z,101401.00
2023-05-21T02:32:13.900Z,101416.56
2023-05-21T02:37:18.858Z,101413.13
2023-05-21T02:42:23.601Z,101412.06
2023-05-21T02:47:28.169Z,101408.03
2023-05-21T02:52:31.282Z,101414.97
2023-05-21T02:57:35.663Z,101384.28
2023-05-21T03:02:38.505Z,101401.00
2023-05-21T03:07:41.978Z,101405.06
2023-05-21T03:12:46.099Z,101326.19
2023-05-21T03:17:49.844Z,101388.88
2023-05-21T03:22:55.369Z,101384.41
2023-05-21T03:27:59.628Z,101366.09
2023-05-21T03:33:20.730Z,101341.75
2023-05-21T03:38:26.212Z,101304.59
2023-05-21T03:43:32.645Z,101315.66
2023-05-21T03:48:35.671Z,101318.53
2023-05-21T03:53:38.382Z,101377.06
2023-05-21T03:58:42.726Z,101385.03
2023-05-21T04:03:45.787Z,101388.56
2023-05-21T04:08:49.930Z,101400.28
2023-05-21T04:13:56.797Z,101399.41
2023-05-21T04:18:59.548Z,101395.16
2023-05-21T04:24:03.820Z,101380.13
2023-05-21T04:29:29.882Z,101401.78
2023-05-21T04:34:33.900Z,101396.66
2023-05-21T04:39:40.966Z,101404.22
2023-05-21T04:44:45.523Z,101396.88
2023-05-21T04:49:48.564Z,101402.84
2023-05-21T04:54:51.748Z,101375.66
2023-05-21T04:59:58.159Z,101412.38
2023-05-21T05:05:02.282Z,101380.13
2023-05-21T05:10:09.672Z,101339.03
2023-05-21T05:15:13.891Z,101174.72
2023-05-21T05:20:17.199Z,101398.84
2023-05-21T05:25:22.983Z,101391.56
2023-05-21T05:30:28.574Z,101374.44
2023-05-21T05:35:39.495Z,101391.94
2023-05-21T05:40:43.440Z,101354.09
2023-05-21T05:45:50.202Z,101404.16
2023-05-21T05:50:54.610Z,101414.16
2023-05-21T05:55:57.953Z,101311.69
2023-05-21T06:01:03.013Z,101380.53
2023-05-21T06:06:06.120Z,101387.69
2023-05-21T06:11:09.547Z,101274.75
2023-05-21T06:16:13.791Z,101301.75
2023-05-21T06:21:16.718Z,101181.41
2023-05-21T06:26:21.984Z,101382.72
2023-05-21T06:31:28.032Z,101321.78
2023-05-21T06:36:32.682Z,101059.22
2023-05-21T06:41:39.654Z,101276.81
2023-05-21T06:47:23.107Z,101116.50
2023-05-21T06:52:53.436Z,100959.94
2023-05-21T06:58:02.642Z,101298.56
2023-05-21T07:03:08.649Z,101080.41
2023-05-21T07:08:14.379Z,101340.81
2023-05-21T07:13:17.557Z,101304.63
2023-05-21T07:18:22.261Z,101352.31
2023-05-21T07:23:26.227Z,101375.72
2023-05-21T07:28:29.006Z,101321.13
2023-05-21T07:33:36.671Z,101358.34
2023-05-21T07:38:40.216Z,101386.69
2023-05-21T07:43:44.915Z,101240.44
2023-05-21T07:48:57.281Z,101365.38
2023-05-21T07:54:01.103Z,101365.50
2023-05-21T07:59:08.845Z,101337.69
2023-05-21T08:04:16.670Z,101360.00
2023-05-21T08:09:21.676Z,101364.66
2023-05-21T08:14:26.500Z,101364.06
2023-05-21T08:19:33.924Z,101378.16
2023-05-21T08:24:37.579Z,101349.66
2023-05-21T08:29:40.521Z,101320.00
2023-05-21T08:34:49.228Z,101309.75
2023-05-21T08:40:16.286Z,101370.13
2023-05-21T08:45:25.627Z,101347.81
2023-05-21T08:50:32.485Z,101383.03
2023-05-21T08:55:46.684Z,101330.44
2023-05-21T09:00:59.612Z,101318.94
2023-05-21T09:06:09.177Z,101290.66
2023-05-21T09:11:15.658Z,101376.88
2023-05-21T09:16:35.870Z,101378.16
2023-05-21T09:21:43.482Z,101084.44
2023-05-21T09:27:12.288Z,101145.63
2023-05-21T09:32:18.991Z,101091.47
2023-05-21T09:37:27.402Z,101360.47
2023-05-21T09:42:49.347Z,101343.66
2023-05-21T09:48:09.553Z,101355.81
2023-05-21T09:53:47.336Z,101356.00
2023-05-21T09:58:40.948Z,101285.00
2023-05-21T10:03:50.747Z,101279.66
2023-05-21T10:09:02.548Z,101325.97
2023-05-21T10:14:10.501Z,101334.72
2023-05-21T10:19:19.561Z,101323.66
2023-05-21T10:24:25.887Z,101305.19
2023-05-21T10:29:30.383Z,101315.44
2023-05-21T10:34:33.220Z,101294.84
2023-05-21T10:39:39.956Z,101320.50
2023-05-21T10:45:01.388Z,101308.69
2023-05-21T10:50:27.684Z,101177.03
2023-05-21T10:55:58.322Z,101246.50
2023-05-21T11:01:07.040Z,101185.53
2023-05-21T11:06:11.674Z,101220.91
2023-05-21T11:11:43.764Z,101303.09
2023-05-21T11:16:49.399Z,101160.97
2023-05-21T11:21:52.566Z,101288.72
2023-05-21T11:27:04.652Z,101045.63
2023-05-21T11:32:09.191Z,101234.06
2023-05-21T11:37:40.756Z,101192.25
2023-05-21T11:43:03.217Z,101291.09
2023-05-21T11:48:08.771Z,101140.31
2023-05-21T11:53:18.336Z,101286.16
2023-05-21T11:58:23.033Z,101143.09
2023-05-21T12:03:30.840Z,101062.31
2023-05-21T12:08:34.508Z,101115.78
2023-05-21T12:13:40.673Z,101215.78
2023-05-21T12:18:46.577Z,101197.69
2023-05-21T12:24:00.999Z,101039.09
2023-05-21T12:29:08.031Z,101221.59
2023-05-21T12:34:11.933Z,101129.28
2023-05-21T12:39:15.847Z,101250.94
2023-05-21T12:44:20.146Z,101256.19
2023-05-21T12:49:34.981Z,101118.88
2023-05-21T12:54:38.898Z,101067.47
2023-05-21T12:59:51.052Z,101203.13
2023-05-21T13:04:58.987Z,101032.34
2023-05-21T13:10:06.695Z,101223.47
2023-05-21T13:15:27.812Z,101221.34
2023-05-21T13:20:36.342Z,101221.16
2023-05-21T13:25:40.053Z,101212.47
2023-05-21T13:30:46.694Z,101217.25
2023-05-21T13:35:51.961Z,101207.44
2023-05-21T13:40:55.245Z,100932.38
2023-05-21T13:45:59.416Z,101044.59
2023-05-21T13:51:02.263Z,101075.22
2023-05-21T13:56:07.160Z,101096.72
2023-05-21T14:01:13.830Z,101144.56
2023-05-21T14:06:17.311Z,101006.91
2023-05-21T14:11:20.393Z,101170.28
2023-05-21T14:16:27.199Z,101193.41
2023-05-21T14:21:32.749Z,101199.94
2023-05-21T14:26:36.917Z,101212.81
2023-05-21T14:31:41.642Z,101206.22
2023-05-21T14:36:44.502Z,101207.88
2023-05-21T14:41:47.410Z,101199.88
2023-05-21T14:46:52.165Z,101148.59
2023-05-21T14:51:57.141Z,101201.06
2023-05-21T14:57:00.024Z,101134.50
2023-05-21T15:02:04.503Z,101191.53
2023-05-21T15:07:07.737Z,101176.13
2023-05-21T15:12:10.844Z,101144.59
2023-05-21T15:17:15.092Z,101164.88
2023-05-21T15:22:19.146Z,101145.69
2023-05-21T15:27:35.953Z,101149.09
2023-05-21T15:32:39.984Z,101164.63
2023-05-21T15:37:47.537Z,101157.22
2023-05-21T15:42:50.431Z,101147.97
2023-05-21T15:47:54.743Z,101125.28
2023-05-21T15:52:57.756Z,101149.56
2023-05-21T15:58:02.238Z,101134.41
2023-05-21T16:03:06.859Z,101147.22
2023-05-21T16:08:10.703Z,101153.94
2023-05-21T16:13:13.504Z,101148.22
2023-05-21T16:18:17.719Z,101155.63
2023-05-21T16:23:20.437Z,101160.19
2023-05-21T16:28:24.237Z,101160.03
2023-05-21T16:33:37.570Z,101154.31
2023-05-21T16:38:40.278Z,101140.63
2023-05-21T16:43:43.137Z,101136.06
2023-05-21T16:48:47.247Z,101134.56
2023-05-21T16:53:49.998Z,101131.03
2023-05-21T16:58:52.812Z,101136.09
2023-05-21T17:03:57.203Z,101131.50
2023-05-21T17:09:00.398Z,101106.56
2023-05-21T17:14:03.209Z,101120.38
2023-05-21T17:19:07.425Z,101133.72
2023-05-21T17:24:10.283Z,101135.41
2023-05-21T17:29:13.033Z,101113.00
2023-05-21T17:34:17.892Z,101149.59
2023-05-21T17:39:21.003Z,101149.94
2023-05-21T17:44:23.852Z,101132.88
2023-05-21T17:49:35.435Z,101151.44
2023-05-21T17:54:41.429Z,101155.97
2023-05-21T17:59:46.445Z,101163.56
2023-05-21T18:04:50.930Z,101146.84
2023-05-21T18:09:53.784Z,101122.59
2023-05-21T18:15:02.238Z,101119.03
2023-05-21T18:26:22.797Z,101075.50
2023-05-21T18:31:26.174Z,101105.84
2023-05-21T18:36:58.749Z,101158.66
2023-05-21T18:42:12.951Z,101155.03
2023-05-21T18:47:50.613Z,101150.50
2023-05-21T18:59:32.355Z,101145.19
2023-05-21T19:04:52.668Z,101064.00
2023-05-21T19:10:12.015Z,101121.38
2023-05-21T19:16:06.818Z,100792.13
2023-05-21T19:21:52.587Z,101167.16
2023-05-21T19:27:58.125Z,101161.84
2023-05-21T19:33:13.215Z,100756.09
2023-05-21T19:44:12.740Z,101143.81
2023-05-21T19:49:15.800Z,101197.03
2023-05-21T19:54:18.964Z,101182.31
2023-05-21T19:59:26.172Z,101091.66
2023-05-21T20:04:28.881Z,101188.78
2023-05-21T20:09:32.102Z,101190.38
2023-05-21T20:14:36.174Z,101198.84
2023-05-21T20:19:40.297Z,101214.22
2023-05-21T20:24:42.962Z,101170.97
2023-05-21T20:29:47.533Z,101191.63
2023-05-21T20:35:02.859Z,101195.91
2023-05-21T20:40:09.079Z,101188.38
2023-05-21T20:45:15.655Z,101098.84
2023-05-21T20:50:21.666Z,101176.69
2023-05-21T20:55:24.520Z,101148.16
2023-05-21T21:00:30.597Z,101158.91
2023-05-21T21:05:33.299Z,101163.47
2023-05-21T21:10:36.922Z,101194.81
2023-05-21T21:15:43.604Z,101161.75
2023-05-21T21:20:49.487Z,101236.66
2023-05-21T21:25:52.502Z,101257.81
2023-05-21T21:30:56.611Z,101224.22
2023-05-21T21:36:03.034Z,101198.31
2023-05-21T21:41:07.446Z,101124.16
2023-05-21T21:46:12.128Z,101183.38
2023-05-21T21:51:15.589Z,101159.41
2023-05-21T21:56:18.464Z,101171.13
2023-05-21T22:01:22.717Z,101166.47
2023-05-21T22:06:28.512Z,100885.66
2023-05-21T22:11:32.059Z,101137.72
2023-05-21T22:16:43.824Z,101077.47
2023-05-21T22:21:46.609Z,101110.78
2023-05-21T22:26:49.626Z,101139.13
2023-05-21T22:31:53.916Z,101129.78
2023-05-21T22:36:57.810Z,101196.25
2023-05-21T22:42:00.772Z,101200.75
2023-05-21T22:47:05.364Z,101220.91
2023-05-21T22:52:13.250Z,101142.22
2023-05-21T22:57:16.053Z,101178.19
2023-05-21T23:02:20.271Z,101171.28
2023-05-21T23:07:23.002Z,101167.91
2023-05-21T23:12:25.882Z,101157.31
2023-05-21T23:17:29.997Z,101137.50
2023-05-21T23:22:32.845Z,101157.06
2023-05-21T23:27:35.834Z,101066.06
2023-05-21T23:32:39.963Z,101125.31
2023-05-21T23:37:48.824Z,101092.56
2023-05-21T23:42:51.540Z,101096.00
2023-05-21T23:47:55.845Z,101106.72
2023-05-21T23:52:59.512Z,101097.50
2023-05-21T23:58:06.709Z,101099.75
